Time;durP1;ratioP1;P1;durP2;ratioP2;P2;SDS_P1;SDS_P2;PMS_P1;PMS_P2;Temp;Humidity;BMP_temperature;BMP_pressure;BME280_temperature;BME280_humidity;BME280_pressure;Samples;Min_cycle;Max_cycle;Signal;HPM_P1;HPM_P2
2021/12/13 00:02:13;;;;;;;33.63;19.73;;;;;;;2.54;85.05;101087.70;1723510;82;21039;-69
2021/12/13 00:04:52;;;;;;;30.10;20.25;;;;;;;2.59;85.13;101092.39;1723251;82;21187;-69
2021/12/13 00:07:23;;;;;;;29.27;19.95;;;;;;;2.64;85.09;101093.97;1718472;83;21586;-69
2021/12/13 00:09:54;;;;;;;30.88;20.32;;;;;;;2.68;85.00;101089.12;1722876;82;21516;-69
2021/12/13 00:12:34;;;;;;;29.05;19.50;;;;;;;2.64;84.99;101091.33;1723497;82;21027;-69
2021/12/13 00:15:08;;;;;;;30.90;19.60;;;;;;;2.63;84.98;101093.63;1723342;82;21036;-69
2021/12/13 00:17:46;;;;;;;29.55;20.12;;;;;;;2.61;84.97;101086.95;1723419;83;21162;-69
2021/12/13 00:20:37;;;;;;;31.40;21.23;;;;;;;2.56;84.96;101068.53;1722841;82;21096;-68
2021/12/13 00:23:12;;;;;;;31.23;20.27;;;;;;;2.55;85.00;101064.28;1696450;82;20969;-68
2021/12/13 00:25:42;;;;;;;33.70;21.23;;;;;;;2.57;85.01;101070.19;1674147;83;21235;-68
2021/12/13 00:28:15;;;;;;;32.70;20.68;;;;;;;2.57;84.90;101075.97;1686520;85;21521;-68
2021/12/13 00:31:05;;;;;;;36.15;21.30;;;;;;;2.54;84.94;101081.11;1686025;85;21159;-68
2021/12/13 00:33:57;;;;;;;32.85;21.52;;;;;;;2.55;84.97;101073.50;1685907;85;21050;-68
2021/12/13 00:37:00;;;;;;;32.17;22.05;;;;;;;2.55;84.97;101068.73;1686560;85;20971;-68
2021/12/13 00:39:29;;;;;;;;;;;;;;;2.55;85.04;101068.73;1688901;85;21127;-68
2021/12/13 00:41:56;;;;;;;32.55;20.80;;;;;;;2.57;85.12;101057.00;1668913;86;20446;-69
2021/12/13 00:44:37;;;;;;;36.88;22.73;;;;;;;2.61;85.09;101065.84;1668760;86;21848;-68
2021/12/13 00:47:09;;;;;;;38.05;23.00;;;;;;;2.59;85.07;101060.75;1723690;83;27622;-69
2021/12/13 00:49:38;;;;;;;36.05;22.40;;;;;;;2.55;85.10;101064.28;1723409;83;21523;-68
2021/12/13 00:52:07;;;;;;;35.75;22.80;;;;;;;2.59;85.21;101063.39;1723400;81;21547;-68
2021/12/13 00:54:39;;;;;;;36.83;23.80;;;;;;;2.59;85.13;101060.75;1723122;83;20994;-68
2021/12/13 00:57:31;;;;;;;39.70;23.77;;;;;;;2.61;85.19;101067.98;1723747;83;21144;-68
2021/12/13 01:00:04;;;;;;;36.03;22.20;;;;;;;2.62;85.19;101059.55;1723538;82;27220;-68
2021/12/13 01:02:49;;;;;;;39.67;23.90;;;;;;;2.60;85.21;101057.13;1723364;82;20977;-68
2021/12/13 01:05:42;;;;;;;40.67;25.68;;;;;;;2.59;85.22;101052.33;1723307;82;21001;-68
2021/12/13 01:08:22;;;;;;;39.50;23.73;;;;;;;2.56;85.19;101052.71;1723243;83;21086;-69
2021/12/13 01:11:10;;;;;;;40.90;24.82;;;;;;;2.56;85.23;101061.13;1721739;82;21177;-68
2021/12/13 01:13:54;;;;;;;39.38;24.50;;;;;;;2.58;85.28;101052.53;1723202;83;21080;-68
2021/12/13 01:21:41;;;;;;;40.35;24.67;;;;;;;2.64;85.27;101012.21;1723689;82;21060;-68
2021/12/13 01:24:20;;;;;;;39.48;23.40;;;;;;;2.64;85.20;101006.13;1723348;82;21156;-69
2021/12/13 01:26:50;;;;;;;42.45;24.70;;;;;;;2.65;85.13;100998.01;1723043;82;20966;-68
2021/12/13 01:29:21;;;;;;;41.08;25.10;;;;;;;2.63;85.18;100996.56;1723328;82;21705;-69
2021/12/13 01:31:53;;;;;;;39.73;24.67;;;;;;;2.64;85.15;100992.94;1723446;83;20957;-68
2021/12/13 01:34:23;;;;;;;38.88;24.37;;;;;;;2.62;85.13;100995.75;1723169;83;21080;-69
2021/12/13 01:37:03;;;;;;;38.33;23.52;;;;;;;2.59;85.19;100994.31;1723203;83;21165;-69
2021/12/13 01:39:26;;;;;;;40.48;23.65;;;;;;;2.61;85.21;100994.64;1720901;82;21017;-70
2021/12/13 01:41:59;;;;;;;39.08;24.30;;;;;;;2.65;85.22;101011.70;1723180;81;21590;-68
2021/12/13 01:44:33;;;;;;;41.70;24.67;;;;;;;2.65;85.25;101015.15;1723236;82;20973;-69
2021/12/13 01:47:11;;;;;;;43.92;26.73;;;;;;;2.67;85.21;101011.02;1686151;83;21100;-68
2021/12/13 01:49:45;;;;;;;39.27;22.82;;;;;;;2.67;85.21;101021.56;1685647;84;21992;-68
2021/12/13 01:52:25;;;;;;;41.00;23.83;;;;;;;2.72;85.27;101021.78;1686220;85;20995;-68
2021/12/13 01:54:54;;;;;;;43.00;24.35;;;;;;;2.74;85.21;101017.95;1685973;84;21002;-68
2021/12/13 01:57:26;;;;;;;38.40;23.18;;;;;;;2.77;85.18;101014.92;1686394;85;21014;-67
2021/12/13 02:00:17;;;;;;;44.50;24.85;;;;;;;2.76;85.14;101017.75;1686259;84;20952;-68
2021/12/13 02:02:47;;;;;;;38.45;23.77;;;;;;;2.75;85.13;101010.84;1685856;85;21521;-68
2021/12/13 02:05:21;;;;;;;40.40;23.35;;;;;;;2.75;85.11;101014.30;1685885;84;20999;-68
2021/12/13 02:07:58;;;;;;;46.35;26.07;;;;;;;2.76;85.09;101000.12;1686679;85;21140;-69
2021/12/13 02:10:30;;;;;;;45.28;26.50;;;;;;;2.74;85.12;100998.68;1685021;84;21067;-69
2021/12/13 02:13:17;;;;;;;42.13;24.50;;;;;;;2.73;85.13;100997.87;1668172;84;20963;-68
2021/12/13 02:18:38;;;;;;;44.03;25.57;;;;;;;2.74;85.14;101009.23;1722890;82;21464;-67
2021/12/13 02:21:16;;;;;;;46.23;27.02;;;;;;;2.72;85.16;101011.23;1723607;82;21013;-68
2021/12/13 02:23:43;;;;;;;47.53;25.68;;;;;;;2.71;85.18;101015.70;1722564;82;21076;-69
2021/12/13 02:26:10;;;;;;;47.33;27.27;;;;;;;2.75;85.23;101006.89;1722945;82;20957;-68
2021/12/13 02:28:40;;;;;;;48.15;27.50;;;;;;;2.74;85.11;101012.67;1722892;82;21164;-69
2021/12/13 02:31:21;;;;;;;45.58;26.07;;;;;;;2.75;85.19;101015.62;1723021;82;21080;-68
2021/12/13 02:33:55;;;;;;;48.75;28.32;;;;;;;2.80;85.15;101011.09;1723422;82;20968;-69
2021/12/13 02:36:29;;;;;;;47.88;27.50;;;;;;;2.81;85.12;101008.25;1723245;83;21026;-69
2021/12/13 02:38:59;;;;;;;51.10;28.32;;;;;;;2.84;85.13;101004.92;1722958;82;21523;-69
2021/12/13 02:41:29;;;;;;;44.83;25.88;;;;;;;2.84;85.12;101005.73;1723081;83;21504;-69
2021/12/13 02:44:04;;;;;;;55.08;29.15;;;;;;;2.91;85.06;101010.53;1722825;82;21061;-68
2021/12/13 02:46:33;;;;;;;43.87;25.75;;;;;;;2.93;85.12;101010.33;1723336;83;20953;-69
2021/12/13 02:49:05;;;;;;;48.92;29.25;;;;;;;2.98;85.01;101012.70;1722769;82;21642;-68
2021/12/13 02:51:45;;;;;;;48.92;29.35;;;;;;;2.93;84.87;101004.57;1723640;83;21080;-68
2021/12/13 02:54:25;;;;;;;48.83;28.15;;;;;;;2.91;84.82;101004.45;1723129;82;21134;-69
2021/12/13 02:57:03;;;;;;;48.50;29.52;;;;;;;2.92;84.84;101002.92;1723267;83;20935;-69
2021/12/13 02:59:31;;;;;;;46.30;26.57;;;;;;;2.96;84.80;100996.74;1722252;82;21021;-68
2021/12/13 03:02:11;;;;;;;49.85;29.95;;;;;;;2.98;84.75;100996.05;1723243;82;21059;-68
2021/12/13 03:04:38;;;;;;;54.65;28.92;;;;;;;2.99;84.68;100992.39;1722264;83;20963;-68
2021/12/13 03:07:10;;;;;;;55.88;30.62;;;;;;;2.98;84.63;100996.86;1723332;83;21132;-68
2021/12/13 03:09:41;;;;;;;47.48;26.57;;;;;;;2.96;84.64;100985.71;1722614;82;21025;-67
2021/12/13 03:12:12;;;;;;;54.40;30.23;;;;;;;3.01;84.68;100983.79;1722258;83;21558;-69
2021/12/13 03:14:57;;;;;;;53.30;30.15;;;;;;;3.02;84.58;100981.45;1723331;82;21065;-68
2021/12/13 03:17:31;;;;;;;52.23;26.80;;;;;;;3.00;84.45;100975.06;1723300;82;21056;-68
2021/12/13 03:20:20;;;;;;;50.03;28.17;;;;;;;2.99;84.42;100973.92;1722766;82;21126;-68
2021/12/13 03:22:58;;;;;;;52.90;26.70;;;;;;;2.92;84.40;100960.70;1723321;83;21043;-68
2021/12/13 03:25:38;;;;;;;55.30;27.27;;;;;;;2.90;84.39;100965.38;1670215;83;20968;-69
2021/12/13 03:28:25;;;;;;;52.62;28.15;;;;;;;2.85;84.39;100964.33;1624033;85;21007;-67
2021/12/13 03:31:09;;;;;;;53.98;29.20;;;;;;;2.82;84.42;100961.58;1676655;85;21506;-67
2021/12/13 03:33:53;;;;;;;46.10;27.30;;;;;;;2.82;84.45;100959.74;1686124;84;21970;-68
2021/12/13 03:36:25;;;;;;;56.98;27.87;;;;;;;2.81;84.54;100961.27;1686151;85;20984;-68
2021/12/13 03:38:54;;;;;;;53.15;29.72;;;;;;;2.80;84.62;100968.89;1667574;85;21099;-68
2021/12/13 03:41:24;;;;;;;54.13;27.93;;;;;;;2.82;84.63;100977.41;1668751;84;21032;-68
2021/12/13 03:44:02;;;;;;;57.45;29.82;;;;;;;2.85;84.66;100982.29;1723501;83;21060;-69
2021/12/13 03:46:31;;;;;;;54.25;28.73;;;;;;;2.87;84.63;100980.28;1723449;81;21110;-68
2021/12/13 03:48:59;;;;;;;52.83;29.27;;;;;;;2.88;84.66;100978.45;1723514;82;20950;-68
2021/12/13 03:51:30;;;;;;;54.10;28.77;;;;;;;2.89;84.62;100959.77;1723249;83;21069;-68
2021/12/13 03:53:57;;;;;;;62.55;31.70;;;;;;;2.91;84.55;100955.13;1723616;83;21048;-68
2021/12/13 03:56:28;;;;;;;57.48;31.15;;;;;;;2.89;84.47;100951.86;1723343;83;21088;-68
2021/12/13 03:59:09;;;;;;;61.13;30.68;;;;;;;2.88;84.48;100951.56;1723702;81;21130;-68
2021/12/13 04:01:56;;;;;;;53.75;27.95;;;;;;;2.87;84.43;100958.36;1723257;82;21474;-68
2021/12/13 04:04:27;;;;;;;54.95;29.23;;;;;;;2.82;84.45;100948.38;1723094;82;21107;-68
2021/12/13 04:06:59;;;;;;;59.48;29.37;;;;;;;2.80;84.53;100955.70;1718855;83;21053;-68
2021/12/13 04:09:27;;;;;;;58.45;32.13;;;;;;;2.78;84.58;100949.79;1723807;83;21005;-68
2021/12/13 04:11:57;;;;;;;49.42;27.85;;;;;;;2.77;84.64;100960.05;1723232;82;21151;-69
2021/12/13 04:14:31;;;;;;;52.53;29.05;;;;;;;2.80;84.75;100955.70;1723528;81;20993;-69
2021/12/13 04:17:36;;;;;;;57.73;30.30;;;;;;;2.85;84.69;100955.09;1723335;83;21485;-69
2021/12/13 04:19:59;;;;;;;55.50;28.12;;;;;;;2.83;84.70;100952.67;1718349;82;21444;-68
2021/12/13 04:22:31;;;;;;;61.20;32.03;;;;;;;2.80;84.78;100951.74;1723303;83;21072;-69
2021/12/13 04:25:11;;;;;;;60.70;31.75;;;;;;;2.80;84.76;100950.42;1723805;82;21126;-69
2021/12/13 04:27:44;;;;;;;58.58;29.30;;;;;;;2.76;84.74;100953.95;1723238;83;21539;-69
2021/12/13 04:30:19;;;;;;;59.98;30.57;;;;;;;2.73;84.75;100962.26;1723353;82;20985;-67
2021/12/13 04:32:51;;;;;;;59.35;31.70;;;;;;;2.70;84.84;100969.72;1723425;83;21526;-68
2021/12/13 04:35:18;;;;;;;55.48;29.82;;;;;;;2.66;84.94;100973.25;1723519;82;21051;-68
2021/12/13 04:37:49;;;;;;;68.00;33.42;;;;;;;2.67;84.97;100975.41;1723207;83;21541;-68
2021/12/13 04:40:23;;;;;;;68.30;33.50;;;;;;;2.65;84.99;100970.31;1723387;82;21062;-68
2021/12/13 04:43:06;;;;;;;59.10;28.75;;;;;;;2.67;85.04;100975.41;1723380;82;21534;-68
2021/12/13 04:45:33;;;;;;;59.18;29.65;;;;;;;2.70;85.09;100976.31;1719692;83;20963;-68
2021/12/13 04:48:15;;;;;;;55.90;29.27;;;;;;;2.74;85.12;100976.26;1723187;83;20971;-68
2021/12/13 04:51:05;;;;;;;58.50;30.80;;;;;;;2.76;85.09;100964.51;1722784;83;21066;-67
2021/12/13 04:53:36;;;;;;;66.90;31.97;;;;;;;2.76;85.06;100964.98;1723202;83;21070;-68
2021/12/13 04:56:07;;;;;;;57.25;29.05;;;;;;;2.74;85.04;100970.98;1723618;83;21097;-67
2021/12/13 04:58:34;;;;;;;57.85;29.57;;;;;;;2.73;85.10;100971.97;1723172;83;21695;-68
2021/12/13 05:01:04;;;;;;;61.73;31.48;;;;;;;2.73;85.10;100977.24;1723362;82;20995;-68
2021/12/13 05:03:37;;;;;;;63.30;32.20;;;;;;;2.72;85.06;100971.67;1723220;82;21165;-68
2021/12/13 05:06:09;;;;;;;61.90;32.15;;;;;;;2.65;85.08;100978.23;1723424;83;25653;-68
2021/12/13 05:08:38;;;;;;;74.03;32.00;;;;;;;2.63;85.06;100980.73;1685901;85;21558;-68
2021/12/13 05:11:07;;;;;;;64.77;32.42;;;;;;;2.63;85.12;100970.19;1649618;86;21067;-67
2021/12/13 05:13:41;;;;;;;60.28;30.82;;;;;;;2.62;85.15;100978.61;1668842;85;21115;-68
2021/12/13 05:16:10;;;;;;;63.33;30.85;;;;;;;2.62;85.20;100973.84;1722695;83;21236;-69
2021/12/13 05:18:50;;;;;;;64.62;31.95;;;;;;;2.58;85.39;100980.83;1723272;82;21007;-69
2021/12/13 05:21:33;;;;;;;57.13;29.18;;;;;;;2.58;85.28;100967.64;1723287;83;21006;-68
2021/12/13 05:24:04;;;;;;;57.25;28.27;;;;;;;2.59;85.35;100975.85;1700231;83;21011;-69
2021/12/13 05:26:36;;;;;;;56.50;28.27;;;;;;;2.62;85.44;100975.16;1723276;83;20998;-69
2021/12/13 05:29:06;;;;;;;54.30;27.65;;;;;;;2.56;85.57;100974.92;1686186;84;21112;-69
2021/12/13 05:31:33;;;;;;;63.78;29.27;;;;;;;2.56;85.63;100969.64;1668741;86;21067;-68
2021/12/13 05:34:04;;;;;;;55.20;28.83;;;;;;;2.60;85.61;100970.10;1668989;86;21460;-69
2021/12/13 05:36:36;;;;;;;57.48;28.57;;;;;;;2.61;85.65;100974.36;1723273;83;20944;-69
2021/12/13 05:39:10;;;;;;;51.90;28.35;;;;;;;2.66;85.70;100980.36;1723424;82;21495;-70
2021/12/13 05:41:37;;;;;;;51.53;26.65;;;;;;;2.66;85.69;100981.16;1723398;83;21317;-68
2021/12/13 05:44:10;;;;;;;51.53;25.97;;;;;;;2.66;85.69;100987.76;1723161;83;21026;-70
2021/12/13 05:46:44;;;;;;;41.37;24.18;;;;;;;2.67;85.67;100992.05;1723302;82;21536;-69
2021/12/13 05:49:21;;;;;;;46.08;25.85;;;;;;;2.70;85.56;100989.02;1723391;82;21041;-70
2021/12/13 05:51:58;;;;;;;46.13;24.57;;;;;;;2.70;85.44;101000.89;1721977;81;21444;-69
2021/12/13 05:54:32;;;;;;;40.30;23.32;;;;;;;2.69;85.44;101004.52;1722636;82;21453;-69
2021/12/13 05:57:21;;;;;;;42.10;23.47;;;;;;;2.73;85.46;101010.22;1723081;83;21492;-68
2021/12/13 06:00:14;;;;;;;46.45;24.27;;;;;;;2.73;85.39;101013.69;1722974;82;20969;-69
2021/12/13 06:03:03;;;;;;;42.38;23.15;;;;;;;2.72;85.31;101012.55;1719626;83;21511;-68
2021/12/13 06:05:48;;;;;;;41.65;24.02;;;;;;;2.66;85.30;101008.86;1722596;82;21502;-68
2021/12/13 06:08:18;;;;;;;42.58;24.10;;;;;;;2.65;85.33;101013.02;1685878;85;21819;-69
2021/12/13 06:11:00;;;;;;;38.75;23.62;;;;;;;2.65;85.36;101020.42;1685582;84;20959;-69
2021/12/13 06:13:53;;;;;;;40.05;23.70;;;;;;;2.65;85.31;101024.38;1686262;85;21544;-70
2021/12/13 06:16:37;;;;;;;37.23;23.30;;;;;;;2.65;85.31;101026.20;1685956;85;21030;-70
2021/12/13 06:19:10;;;;;;;35.17;21.55;;;;;;;2.65;85.34;101021.74;1685237;84;21066;-69
2021/12/13 06:22:09;;;;;;;39.80;23.75;;;;;;;2.69;85.33;101024.81;1686137;85;21116;-70
2021/12/13 06:24:53;;;;;;;40.45;22.48;;;;;;;2.67;85.27;101013.14;1686018;85;21041;-68
2021/12/13 06:27:26;;;;;;;35.83;22.00;;;;;;;2.65;85.28;101012.52;1658418;86;21008;-69
2021/12/13 06:30:13;;;;;;;40.65;23.10;;;;;;;2.62;85.30;101010.77;1661223;86;21084;-69
2021/12/13 06:33:00;;;;;;;34.85;21.15;;;;;;;2.62;85.30;101014.73;1666791;84;21079;-68
2021/12/13 06:35:53;;;;;;;35.83;21.73;;;;;;;2.61;85.28;101011.78;1722053;83;21792;-70
2021/12/13 06:38:44;;;;;;;37.98;22.40;;;;;;;2.58;85.29;101012.47;1723377;83;20965;-69
2021/12/13 06:41:19;;;;;;;36.30;21.12;;;;;;;2.62;85.32;101014.73;1722978;82;21020;-69
2021/12/13 06:43:56;;;;;;;39.23;21.48;;;;;;;2.62;85.27;101014.73;1719513;82;21060;-70
2021/12/13 06:46:29;;;;;;;37.42;22.15;;;;;;;2.64;85.29;101015.36;1723329;83;21024;-68
2021/12/13 06:49:20;;;;;;;36.20;21.80;;;;;;;2.63;85.24;101015.83;1722853;83;21110;-69
2021/12/13 06:52:18;;;;;;;34.63;19.87;;;;;;;2.63;85.22;101013.70;1723429;83;21138;-69
2021/12/13 06:54:59;;;;;;;37.78;21.77;;;;;;;2.64;85.15;101011.41;1722989;82;21061;-68
2021/12/13 06:57:36;;;;;;;34.38;21.80;;;;;;;2.63;85.13;101009.75;1723366;83;20997;-68
2021/12/13 07:00:27;;;;;;;35.33;21.30;;;;;;;2.63;85.15;101007.11;1723254;83;21049;-68
2021/12/13 07:03:12;;;;;;;37.30;22.25;;;;;;;2.66;85.20;101001.45;1723181;82;21156;-68
2021/12/13 07:05:51;;;;;;;36.68;21.77;;;;;;;2.69;85.25;100995.28;1723054;83;21029;-68
2021/12/13 07:08:35;;;;;;;35.98;21.50;;;;;;;2.74;85.16;100988.12;1722507;82;20961;-68
2021/12/13 07:11:12;;;;;;;37.95;22.48;;;;;;;2.75;85.04;100983.15;1723318;82;20973;-69
2021/12/13 07:14:00;;;;;;;33.02;21.27;;;;;;;2.77;85.05;100985.10;1723402;83;21134;-68
2021/12/13 07:16:34;;;;;;;35.50;20.32;;;;;;;2.81;85.02;100983.70;1723362;81;21172;-69
2021/12/13 07:19:25;;;;;;;34.73;22.75;;;;;;;2.82;84.92;100981.36;1723166;81;21574;-68
2021/12/13 07:21:59;;;;;;;34.78;21.90;;;;;;;2.83;84.75;100976.41;1723479;82;21056;-67
2021/12/13 07:24:43;;;;;;;33.92;19.27;;;;;;;2.79;84.62;100971.19;1723204;83;21080;-68
2021/12/13 07:27:13;;;;;;;31.80;19.77;;;;;;;2.76;84.53;100963.67;1721429;83;21126;-68
2021/12/13 07:29:49;;;;;;;33.53;20.72;;;;;;;2.77;84.55;100962.68;1723346;82;21122;-68
2021/12/13 07:32:34;;;;;;;30.50;18.48;;;;;;;2.77;84.51;100961.36;1722343;82;21065;-69
2021/12/13 07:35:13;;;;;;;32.67;20.02;;;;;;;2.78;84.55;100957.20;1719149;82;21019;-68
2021/12/13 07:37:56;;;;;;;37.40;21.05;;;;;;;2.83;84.47;100964.54;1720706;81;21036;-68
2021/12/13 07:40:46;;;;;;;33.30;19.60;;;;;;;2.81;84.35;100963.91;1723365;82;21073;-68
2021/12/13 07:43:29;;;;;;;31.77;20.60;;;;;;;2.80;84.20;100968.38;1723510;81;21378;-69
2021/12/13 07:46:22;;;;;;;33.00;20.30;;;;;;;2.75;84.03;100979.20;1707677;82;21145;-68
2021/12/13 07:48:54;;;;;;;31.35;18.90;;;;;;;2.74;84.04;100992.08;1723325;82;21025;-68
2021/12/13 07:51:41;;;;;;;33.75;20.40;;;;;;;2.73;83.99;100998.34;1723030;82;21468;-68
2021/12/13 08:07:20;;;;;;;27.80;18.57;;;;;;;3.35;83.28;101016.41;1800935;78;23372;-75
2021/12/13 08:10:08;;;;;;;;;;;;;;;3.25;83.18;101015.45;1811605;78;20996;-75
2021/12/13 08:12:41;;;;;;;33.48;19.48;;;;;;;3.20;83.20;101018.69;1815198;79;21205;-74
2021/12/13 08:15:40;;;;;;;28.15;18.02;;;;;;;3.17;83.17;101037.56;1813323;79;21019;-75
2021/12/13 08:18:26;;;;;;;30.27;18.60;;;;;;;3.15;83.12;101032.16;1813990;79;20939;-75
2021/12/13 08:21:06;;;;;;;31.95;19.32;;;;;;;3.05;82.98;101026.73;1814608;79;21458;-75
2021/12/13 08:23:46;;;;;;;29.63;18.42;;;;;;;2.96;82.93;101027.09;1791804;80;21508;-75
2021/12/13 08:26:18;;;;;;;34.10;20.00;;;;;;;2.96;83.04;101029.25;1791797;80;21134;-75
2021/12/13 08:28:49;;;;;;;29.23;18.95;;;;;;;2.99;83.12;101028.02;1789797;80;20915;-75
2021/12/13 08:31:27;;;;;;;36.90;20.88;;;;;;;3.02;83.16;101033.72;1791357;80;21054;-75
2021/12/13 08:34:05;;;;;;;32.13;18.80;;;;;;;3.08;83.19;101031.33;1792057;80;20951;-75
2021/12/13 08:36:41;;;;;;;30.25;19.37;;;;;;;3.13;83.12;101036.84;1789755;80;21153;-75
2021/12/13 08:39:25;;;;;;;32.83;20.02;;;;;;;3.12;83.01;101037.32;1792006;80;21667;-74
2021/12/13 08:42:11;;;;;;;30.92;19.02;;;;;;;3.12;82.99;101024.63;1789052;80;20996;-74
2021/12/13 08:45:07;;;;;;;31.45;19.65;;;;;;;3.16;83.07;101023.22;1791732;80;21058;-74
2021/12/13 08:47:46;;;;;;;36.28;21.52;;;;;;;3.19;83.02;101010.48;1790862;80;20984;-76
2021/12/13 08:50:18;;;;;;;26.10;15.50;;;;;;;3.22;83.02;101000.81;1766130;80;20952;-75
2021/12/13 08:52:46;;;;;;;35.45;22.45;;;;;;;3.23;83.01;101004.30;1760828;81;21174;-75
2021/12/13 08:55:24;;;;;;;34.58;21.05;;;;;;;3.24;83.01;101008.04;1760426;81;21019;-76
2021/12/13 08:58:15;;;;;;;35.28;21.75;;;;;;;3.25;82.98;100997.78;1760647;81;21526;-76
2021/12/13 09:00:59;;;;;;;37.98;22.52;;;;;;;3.24;82.91;100994.84;1762911;80;21498;-74
2021/12/13 09:03:46;;;;;;;42.10;23.73;;;;;;;3.23;82.85;100987.95;1792223;80;20992;-75
2021/12/13 09:06:29;;;;;;;36.90;22.65;;;;;;;3.22;82.74;100984.16;1785510;80;21341;-74
2021/12/13 09:09:09;;;;;;;36.98;22.52;;;;;;;3.17;82.70;100987.92;1792238;80;20967;-75
2021/12/13 09:11:47;;;;;;;36.25;23.10;;;;;;;3.18;82.73;100994.81;1792067;80;20955;-75
2021/12/13 09:14:26;;;;;;;36.48;22.32;;;;;;;3.19;82.70;100981.92;1791890;80;20963;-75
2021/12/13 09:17:26;;;;;;;36.83;22.27;;;;;;;3.19;82.78;100977.95;1791640;80;21081;-76
2021/12/13 09:20:04;;;;;;;41.10;23.73;;;;;;;3.22;82.72;100990.77;1791132;80;21979;-75
2021/12/13 09:22:40;;;;;;;40.83;23.18;;;;;;;3.19;82.73;101001.72;1791562;80;20911;-76
2021/12/13 09:25:15;;;;;;;43.52;25.02;;;;;;;3.16;82.65;101001.62;1789915;80;21129;-76
2021/12/13 09:27:47;;;;;;;38.23;23.05;;;;;;;3.16;82.69;101006.06;1791994;80;20958;-76
2021/12/13 09:30:39;;;;;;;43.20;25.72;;;;;;;3.17;82.79;100999.80;1791121;80;20994;-76
2021/12/13 09:33:30;;;;;;;44.47;26.47;;;;;;;3.20;82.78;100994.13;1769772;80;21103;-76
2021/12/13 09:36:12;;;;;;;43.28;25.20;;;;;;;3.23;82.74;100985.30;1729747;82;20947;-75
2021/12/13 09:39:04;;;;;;;;;;;;;;;3.27;82.70;100980.44;1732812;82;21006;-75
2021/12/13 09:41:48;;;;;;;42.93;24.95;;;;;;;3.29;82.54;100974.44;1731002;81;20139;-74
2021/12/13 09:44:33;;;;;;;43.08;23.83;;;;;;;3.23;82.45;100980.53;1741829;81;20971;-75
2021/12/13 09:47:11;;;;;;;44.38;27.13;;;;;;;3.22;82.50;100988.94;1729769;83;21778;-75
2021/12/13 09:50:01;;;;;;;43.63;24.40;;;;;;;3.18;82.40;100999.59;1729116;83;21085;-75
2021/12/13 09:52:37;;;;;;;42.13;24.32;;;;;;;3.15;82.44;100992.57;1758493;81;21085;-76
2021/12/13 09:55:13;;;;;;;46.83;27.50;;;;;;;3.14;82.44;100983.03;1758729;81;21066;-76
2021/12/13 09:58:06;;;;;;;44.65;26.45;;;;;;;3.13;82.51;100979.58;1728903;83;21045;-73
2021/12/13 10:00:40;;;;;;;40.58;24.72;;;;;;;3.15;82.48;100985.97;1729788;82;21474;-76
2021/12/13 10:03:23;;;;;;;42.50;26.62;;;;;;;3.14;82.58;100980.39;1764712;81;21535;-74
2021/12/13 10:05:55;;;;;;;41.30;24.90;;;;;;;3.17;82.56;100980.00;1767196;81;20999;-75
2021/12/13 10:08:44;;;;;;;46.70;24.95;;;;;;;3.16;82.67;100977.03;1767737;81;20963;-76
2021/12/13 10:11:19;;;;;;;43.28;26.77;;;;;;;3.17;82.58;100976.05;1767810;81;21128;-74
2021/12/13 10:13:45;;;;;;;45.73;26.52;;;;;;;3.19;82.61;100981.44;1755715;81;21141;-75
2021/12/13 10:16:20;;;;;;;43.48;25.97;;;;;;;3.23;82.62;100988.45;1737311;82;21042;-75
2021/12/13 10:18:50;;;;;;;46.10;25.35;;;;;;;3.33;82.68;100991.53;1737446;82;21547;-76
2021/12/13 10:21:33;;;;;;;40.50;24.65;;;;;;;3.39;82.54;100992.06;1737235;82;21436;-76
2021/12/13 10:24:08;;;;;;;38.40;23.65;;;;;;;3.41;82.41;100993.98;1737548;82;20959;-76
2021/12/13 10:26:39;;;;;;;39.40;25.02;;;;;;;3.38;82.20;100993.56;1737533;82;21823;-76
2021/12/13 10:29:09;;;;;;;38.02;22.17;;;;;;;3.31;82.18;100989.59;1737549;82;20963;-76
2021/12/13 10:31:53;;;;;;;39.33;22.87;;;;;;;3.31;82.19;100993.55;1737646;82;21057;-75
2021/12/13 10:34:25;;;;;;;42.62;24.85;;;;;;;3.30;82.21;100991.92;1752920;81;21073;-75
2021/12/13 10:36:55;;;;;;;;;;;;;;;3.27;82.20;100987.84;1770807;81;20959;-75
2021/12/13 10:39:26;;;;;;;37.38;21.30;;;;;;;3.27;82.20;100991.81;1767253;81;21937;-75
2021/12/13 10:41:55;;;;;;;39.23;23.18;;;;;;;3.26;82.25;100994.66;1768354;81;21038;-75
2021/12/13 10:44:29;;;;;;;35.78;22.70;;;;;;;3.25;82.25;100999.61;1767694;81;21098;-75
2021/12/13 10:47:01;;;;;;;38.25;23.00;;;;;;;3.29;82.29;100990.28;1790084;79;21399;-76
2021/12/13 10:49:28;;;;;;;;;;;;;;;3.32;82.32;100991.20;1791538;80;21010;-75
2021/12/13 10:52:08;;;;;;;35.70;20.17;;;;;;;3.37;82.24;100989.30;1758030;81;21129;-74
2021/12/13 10:54:44;;;;;;;33.55;21.97;;;;;;;3.36;82.19;100989.01;1778223;80;21042;-75
2021/12/13 10:57:16;;;;;;;35.63;22.60;;;;;;;3.33;82.19;100978.33;1790006;80;21082;-75
2021/12/13 10:59:43;;;;;;;;;;;;;;;3.32;82.15;100974.04;1761430;81;21033;-75
2021/12/13 11:02:21;;;;;;;36.60;21.93;;;;;;;3.32;82.16;100972.72;1782224;80;20141;-75
2021/12/13 11:04:53;;;;;;;40.95;25.12;;;;;;;3.31;82.19;100965.83;1759164;81;21549;-75
2021/12/13 11:07:21;;;;;;;37.83;23.77;;;;;;;3.30;82.20;100965.52;1750082;81;21008;-75
2021/12/13 11:09:47;;;;;;;35.25;21.00;;;;;;;3.32;82.21;100954.75;1741755;82;21043;-75
2021/12/13 11:12:25;;;;;;;38.60;23.65;;;;;;;3.35;82.21;100959.63;1742063;82;21554;-75
2021/12/13 11:14:54;;;;;;;36.68;23.92;;;;;;;3.36;82.18;100954.69;1742114;82;21039;-76
2021/12/13 11:17:24;;;;;;;35.00;21.55;;;;;;;3.38;82.17;100953.45;1742390;82;22010;-75
2021/12/13 11:19:56;;;;;;;33.95;22.00;;;;;;;3.40;82.10;100947.47;1742569;82;21000;-75
2021/12/13 11:22:28;;;;;;;34.63;21.65;;;;;;;3.38;82.10;100940.24;1742611;82;21562;-75
2021/12/13 11:24:58;;;;;;;;;;;;;;;3.39;82.06;100942.37;1745188;82;21056;-75
2021/12/13 11:27:31;;;;;;;37.78;21.85;;;;;;;3.38;82.08;100934.97;1743084;81;20190;-75
2021/12/13 11:30:00;;;;;;;36.17;22.25;;;;;;;3.41;82.10;100926.64;1756001;81;21532;-76
2021/12/13 11:32:59;;;;;;;36.33;22.62;;;;;;;3.44;82.02;100930.20;1758319;80;21057;-76
2021/12/13 11:36:09;;;;;;;34.30;22.32;;;;;;;3.47;82.02;100934.28;1758194;81;21237;-76
2021/12/13 11:39:32;;;;;;;36.30;24.47;;;;;;;3.51;82.10;100933.67;1754029;81;21655;-72
2021/12/13 11:42:19;;;;;;;;;;;;;;;3.61;82.16;100933.78;1760146;81;21574;-72
2021/12/13 11:45:06;;;;;;;34.35;22.05;;;;;;;3.71;82.06;100936.33;1747273;81;22020;-75
2021/12/13 11:48:18;;;;;;;31.85;20.65;;;;;;;3.77;82.04;100945.28;1745159;81;20982;-76
2021/12/13 11:51:23;;;;;;;29.80;19.30;;;;;;;3.82;82.04;100952.11;1758970;81;20991;-77
2021/12/13 11:54:10;;;;;;;31.87;21.27;;;;;;;3.81;81.80;100961.03;1729256;81;20987;-77
2021/12/13 11:57:16;;;;;;;31.80;20.45;;;;;;;3.73;81.62;100962.56;1758690;80;21554;-76
2021/12/13 12:00:04;;;;;;;29.40;19.62;;;;;;;3.65;81.49;100957.45;1728573;81;21573;-75
2021/12/13 12:03:27;;;;;;;29.23;20.32;;;;;;;3.53;81.63;100945.37;1752571;81;21544;-77
2021/12/13 12:06:36;;;;;;;28.55;19.05;;;;;;;3.58;81.62;100951.35;1732142;81;21124;-79
2021/12/13 12:09:26;;;;;;;26.50;18.23;;;;;;;3.58;81.63;100960.09;1729492;81;21057;-78
2021/12/13 12:12:21;;;;;;;29.30;19.42;;;;;;;3.62;81.58;100969.74;1759175;78;21065;-78
2021/12/13 12:14:59;;;;;;;29.77;18.70;;;;;;;3.60;81.57;100976.56;1772954;78;21623;-77
2021/12/13 12:17:19;;;;;;;;;;;;;;;3.52;81.51;100970.97;1744552;81;21108;-78
2021/12/13 12:19:47;;;;;;;30.95;19.35;;;;;;;3.51;81.48;100965.36;1733914;82;20170;-78
2021/12/13 12:22:18;;;;;;;30.40;19.37;;;;;;;3.49;81.55;100967.41;1760610;79;21046;-75
2021/12/13 12:24:56;;;;;;;30.17;19.75;;;;;;;3.52;81.63;100961.73;1761977;81;21059;-75
2021/12/13 12:27:34;;;;;;;26.05;17.20;;;;;;;3.53;81.68;100956.73;1757481;81;21086;-75
2021/12/13 12:30:09;;;;;;;26.80;17.75;;;;;;;3.52;81.81;100964.37;1744202;80;21034;-74
2021/12/13 12:32:39;;;;;;;27.07;18.48;;;;;;;3.59;81.67;100968.85;1780711;79;21380;-76